createdAt,value
2022-12-23T00:00:55.077Z,85.64
2022-12-23T00:05:57.758Z,85.68
2022-12-23T00:10:59.701Z,85.91
2022-12-23T00:16:07.713Z,86.03
2022-12-23T00:21:11.126Z,85.98
2022-12-23T00:26:18.488Z,85.85
2022-12-23T00:31:21.306Z,85.89
2022-12-23T00:36:30.329Z,86.07
2022-12-23T00:41:51.208Z,85.98
2022-12-23T00:46:53.275Z,86.10
2022-12-23T00:51:55.044Z,86.17
2022-12-23T00:56:56.941Z,86.04
2022-12-23T01:02:17.628Z,86.16
2022-12-23T01:07:20.303Z,86.21
2022-12-23T01:12:22.153Z,86.25
2022-12-23T01:17:24.065Z,86.38
2022-12-23T01:22:25.839Z,86.15
2022-12-23T01:27:27.669Z,86.15
2022-12-23T01:32:29.548Z,86.30
2022-12-23T01:37:31.285Z,86.20
2022-12-23T01:42:45.027Z,86.21
2022-12-23T01:47:52.551Z,86.29
2022-12-23T01:53:07.339Z,86.28
2022-12-23T01:58:17.311Z,86.11
2022-12-23T02:03:38.072Z,86.33
2022-12-23T02:09:18.819Z,86.27
2022-12-23T02:14:52.414Z,86.18
2022-12-23T02:20:40.741Z,86.18
2022-12-23T02:26:10.097Z,86.23
2022-12-23T02:31:35.009Z,86.19
2022-12-23T02:36:58.227Z,86.19
2022-12-23T02:42:09.613Z,86.18
2022-12-23T02:47:19.826Z,86.23
2022-12-23T02:52:26.519Z,86.06
2022-12-23T02:57:34.679Z,86.17
2022-12-23T03:02:39.977Z,86.16
2022-12-23T03:07:43.816Z,86.21
2022-12-23T03:13:32.247Z,86.12
2022-12-23T03:19:06.107Z,86.09
2022-12-23T03:24:34.412Z,86.14
2022-12-23T03:30:04.960Z,86.12
2022-12-23T03:35:09.703Z,86.12
2022-12-23T03:40:25.178Z,86.04
2022-12-23T03:45:39.135Z,86.00
2022-12-23T03:50:44.445Z,85.96
2022-12-23T03:55:52.657Z,85.84
2022-12-23T04:01:05.572Z,85.98
2022-12-23T04:06:14.707Z,85.83
2022-12-23T04:11:16.694Z,85.91
2022-12-23T04:16:19.006Z,85.66
2022-12-23T04:21:20.804Z,85.67
2022-12-23T04:26:22.564Z,85.61
2022-12-23T04:31:24.289Z,85.80
2022-12-23T04:36:26.398Z,85.70
2022-12-23T04:41:28.280Z,85.47
2022-12-23T04:46:30.201Z,85.69
2022-12-23T04:51:32.065Z,85.61
2022-12-23T04:56:37.223Z,85.55
2022-12-23T05:01:39.273Z,85.56
2022-12-23T05:06:41.397Z,85.48
2022-12-23T05:11:43.239Z,85.61
2022-12-23T05:16:45.132Z,85.27
2022-12-23T05:21:47.031Z,85.46
2022-12-23T05:26:52.841Z,85.35
2022-12-23T05:31:59.875Z,85.32
2022-12-23T05:37:01.796Z,85.23
2022-12-23T05:42:03.749Z,85.08
2022-12-23T05:47:06.137Z,85.13
2022-12-23T05:57:33.676Z,85.08
2022-12-23T06:02:35.714Z,85.02
2022-12-23T06:07:39.486Z,84.89
2022-12-23T06:12:41.444Z,85.04
2022-12-23T06:17:49.693Z,84.98
2022-12-23T06:22:51.560Z,84.72
2022-12-23T06:27:53.325Z,84.80
2022-12-23T06:32:55.200Z,84.68
2022-12-23T06:37:57.393Z,84.84
2022-12-23T06:42:59.258Z,84.69
2022-12-23T06:48:01.239Z,85.01
2022-12-23T06:53:03.302Z,84.92
2022-12-23T06:58:05.612Z,84.98
2022-12-23T07:03:07.839Z,84.81
2022-12-23T07:08:09.701Z,85.00
2022-12-23T07:13:12.144Z,84.96
2022-12-23T07:18:13.994Z,85.09
2022-12-23T07:23:15.960Z,85.22
2022-12-23T07:28:17.814Z,85.47
2022-12-23T07:33:19.556Z,85.39
2022-12-23T07:38:21.398Z,85.45
2022-12-23T07:43:23.246Z,85.56
2022-12-23T07:48:25.072Z,85.85
2022-12-23T07:53:26.809Z,85.80
2022-12-23T07:58:28.616Z,85.79
2022-12-23T08:03:30.655Z,86.01
2022-12-23T08:08:33.080Z,85.82
2022-12-23T08:13:37.458Z,85.98
2022-12-23T08:18:40.938Z,85.96
2022-12-23T08:23:43.797Z,86.23
2022-12-23T08:28:45.755Z,86.04
2022-12-23T08:33:52.002Z,86.31
2022-12-23T08:38:55.934Z,86.21
2022-12-23T08:43:58.205Z,86.18
2022-12-23T08:49:00.460Z,86.36
2022-12-23T08:54:02.809Z,86.26
2022-12-23T08:59:05.127Z,86.28
2022-12-23T09:04:08.077Z,86.31
2022-12-23T09:09:12.692Z,86.41
2022-12-23T09:14:14.510Z,86.38
2022-12-23T09:19:18.689Z,86.39
2022-12-23T09:24:21.753Z,86.35
2022-12-23T09:29:23.636Z,86.46
2022-12-23T09:34:26.747Z,86.29
2022-12-23T09:39:28.989Z,86.23
2022-12-23T09:45:06.922Z,86.34
2022-12-23T09:50:26.342Z,86.43
2022-12-23T09:55:40.651Z,86.26
2022-12-23T10:01:11.113Z,86.27
2022-12-23T10:06:34.533Z,86.23
2022-12-23T10:11:42.453Z,86.14
2022-12-23T10:16:55.482Z,86.04
2022-12-23T10:22:05.097Z,85.95
2022-12-23T10:27:30.043Z,85.69
2022-12-23T10:32:44.363Z,85.69
2022-12-23T10:37:55.207Z,85.59
2022-12-23T10:43:27.236Z,85.73
2022-12-23T10:48:51.579Z,85.41
2022-12-23T10:54:00.102Z,85.39
2022-12-23T10:59:03.459Z,85.19
2022-12-23T11:04:20.207Z,85.16
2022-12-23T11:09:25.441Z,85.14
2022-12-23T11:14:35.455Z,85.08
2022-12-23T11:19:38.505Z,84.85
2022-12-23T11:24:43.312Z,84.99
2022-12-23T11:29:51.608Z,84.96
2022-12-23T11:34:56.010Z,85.05
2022-12-23T11:39:58.314Z,84.89
2022-12-23T11:45:00.984Z,84.70
2022-12-23T11:50:34.562Z,84.75
2022-12-23T11:55:38.452Z,84.65
2022-12-23T12:00:42.993Z,84.28
2022-12-23T12:05:51.566Z,84.27
2022-12-23T12:11:00.322Z,84.23
2022-12-23T12:16:36.185Z,84.08
2022-12-23T12:21:39.387Z,83.99
2022-12-23T12:26:44.360Z,84.04
2022-12-23T12:31:50.833Z,83.76
2022-12-23T12:36:55.325Z,83.68
2022-12-23T12:42:09.694Z,83.39
2022-12-23T12:47:54.196Z,83.70
2022-12-23T12:53:04.079Z,83.58
2022-12-23T12:58:18.688Z,83.62
2022-12-23T13:03:50.012Z,83.42
2022-12-23T13:09:07.370Z,83.52
2022-12-23T13:14:42.417Z,83.41
2022-12-23T13:19:52.917Z,83.38
2022-12-23T13:25:14.612Z,83.37
2022-12-23T13:30:19.375Z,83.29
2022-12-23T13:35:21.332Z,83.59
2022-12-23T13:40:43.296Z,83.43
2022-12-23T13:45:47.573Z,83.47
2022-12-23T13:51:11.256Z,83.45
2022-12-23T13:56:34.730Z,83.43
2022-12-23T14:01:48.887Z,83.55
2022-12-23T14:06:58.439Z,83.44
2022-12-23T14:12:20.087Z,83.42
2022-12-23T14:17:39.572Z,83.37
2022-12-23T14:22:52.152Z,83.26
2022-12-23T14:28:16.063Z,83.29
2022-12-23T14:33:27.567Z,83.45
2022-12-23T14:38:32.119Z,83.41
2022-12-23T14:43:51.374Z,83.42
2022-12-23T14:49:09.666Z,83.53
2022-12-23T14:54:16.072Z,83.48
2022-12-23T14:59:49.354Z,83.51
2022-12-23T15:04:55.671Z,83.51
2022-12-23T15:10:04.798Z,83.56
2022-12-23T15:15:22.389Z,83.42
2022-12-23T15:20:25.494Z,83.57
2022-12-23T15:25:34.930Z,83.58
2022-12-23T15:30:47.902Z,83.44
2022-12-23T15:35:50.511Z,83.53
2022-12-23T15:41:01.676Z,83.53
2022-12-23T15:46:29.643Z,83.59
2022-12-23T15:52:05.813Z,83.43
2022-12-23T15:57:01.373Z,83.63
2022-12-23T16:08:09.813Z,83.75
2022-12-23T16:13:19.790Z,83.53
2022-12-23T16:18:30.191Z,83.55
2022-12-23T16:23:37.057Z,83.47
2022-12-23T16:28:42.495Z,83.47
2022-12-23T16:33:53.754Z,83.32
2022-12-23T16:39:16.542Z,83.28
2022-12-23T16:44:18.511Z,83.40
2022-12-23T16:49:29.698Z,83.43
2022-12-23T16:54:37.565Z,83.28
2022-12-23T16:59:41.259Z,83.49
2022-12-23T17:04:43.443Z,83.25
2022-12-23T17:09:45.229Z,83.14
2022-12-23T17:14:50.101Z,83.02
2022-12-23T17:19:52.451Z,83.03
2022-12-23T17:24:54.257Z,83.10
2022-12-23T17:29:56.538Z,82.98
2022-12-23T17:34:58.417Z,82.93
2022-12-23T17:40:00.253Z,82.94
2022-12-23T17:45:02.310Z,83.04
2022-12-23T17:50:04.379Z,83.01
2022-12-23T17:55:14.564Z,83.01
2022-12-23T18:00:26.573Z,82.95
2022-12-23T18:05:35.441Z,82.97
2022-12-23T18:10:40.609Z,83.01
2022-12-23T18:15:44.587Z,83.17
2022-12-23T18:20:48.277Z,83.02
2022-12-23T18:25:50.587Z,83.09
2022-12-23T18:30:56.098Z,83.14
2022-12-23T18:35:58.040Z,83.04
2022-12-23T18:40:59.967Z,83.11
2022-12-23T18:46:01.872Z,83.07
2022-12-23T18:51:03.798Z,83.11
2022-12-23T18:56:05.698Z,83.28
2022-12-23T19:01:14.538Z,83.14
2022-12-23T19:06:16.727Z,83.35
2022-12-23T19:11:20.670Z,83.28
2022-12-23T19:16:23.235Z,83.33
2022-12-23T19:21:25.250Z,83.42
2022-12-23T19:26:27.425Z,83.42
2022-12-23T19:31:30.027Z,83.39
2022-12-23T19:36:32.043Z,83.57
2022-12-23T19:41:34.304Z,83.49
2022-12-23T19:46:36.242Z,83.63
2022-12-23T19:51:38.105Z,83.57
2022-12-23T19:56:39.907Z,83.66
2022-12-23T20:01:41.911Z,83.74
2022-12-23T20:06:43.932Z,83.84
2022-12-23T20:11:48.133Z,84.00
2022-12-23T20:16:50.212Z,84.02
2022-12-23T20:21:52.208Z,83.88
2022-12-23T20:26:53.979Z,84.05
2022-12-23T20:31:55.964Z,84.19
2022-12-23T20:36:58.059Z,84.11
2022-12-23T20:41:59.906Z,84.00
2022-12-23T20:47:01.764Z,84.05
2022-12-23T20:52:04.118Z,84.05
2022-12-23T20:57:06.130Z,84.17
2022-12-23T21:02:12.493Z,83.95
2022-12-23T21:07:14.421Z,84.09
2022-12-23T21:12:16.301Z,84.15
2022-12-23T21:17:18.126Z,84.13
2022-12-23T21:22:19.888Z,84.33
2022-12-23T21:27:21.749Z,84.43
2022-12-23T21:32:23.653Z,84.78
2022-12-23T21:37:25.577Z,85.09
2022-12-23T21:42:27.502Z,85.20
2022-12-23T21:47:29.433Z,85.54
2022-12-23T21:52:32.043Z,85.78
2022-12-23T21:57:33.970Z,85.67
2022-12-23T22:02:35.819Z,85.79
2022-12-23T22:07:37.593Z,86.03
2022-12-23T22:12:39.750Z,85.87
2022-12-23T22:17:41.525Z,85.99
2022-12-23T22:22:43.428Z,86.25
2022-12-23T22:27:45.341Z,86.30
2022-12-23T22:32:47.087Z,86.52
2022-12-23T22:37:48.859Z,86.42
2022-12-23T22:42:50.636Z,86.87
2022-12-23T22:47:52.399Z,86.98
2022-12-23T22:52:54.351Z,87.24
2022-12-23T22:57:56.249Z,87.59
2022-12-23T23:02:58.004Z,87.73
2022-12-23T23:08:00.047Z,87.47
2022-12-23T23:13:01.905Z,87.49
2022-12-23T23:18:03.766Z,87.69
2022-12-23T23:23:06.284Z,88.07
2022-12-23T23:28:08.263Z,87.90
2022-12-23T23:33:11.475Z,88.01
2022-12-23T23:38:13.352Z,88.17
2022-12-23T23:43:15.230Z,88.21
2022-12-23T23:48:18.508Z,88.25
2022-12-23T23:53:20.280Z,88.25
2022-12-23T23:58:22.082Z,88.34
